createdAt,value
2022-10-02T06:37:55.134Z,97612.97
2022-10-02T06:40:35.684Z,97603.47
2022-10-02T06:42:50.865Z,97603.19
2022-10-02T06:45:01.501Z,97601.66
2022-10-02T06:47:19.708Z,97603.31
2022-10-02T06:49:51.703Z,97610.22
2022-10-02T06:52:10.246Z,97593.53
2022-10-02T06:54:43.003Z,97603.94
2022-10-02T06:56:59.025Z,97606.56
2022-10-02T06:59:17.464Z,97613.13
2022-10-02T07:01:31.580Z,97616.19
2022-10-02T07:03:55.716Z,97624.56
2022-10-02T07:06:15.077Z,97619.81
2022-10-02T07:08:30.249Z,97628.03
2022-10-02T07:10:43.643Z,97621.44
2022-10-02T07:13:21.080Z,97629.81
2022-10-02T07:15:50.617Z,97619.75
2022-10-02T07:18:07.143Z,97622.59
2022-10-02T07:20:26.921Z,97629.13
2022-10-02T07:22:45.598Z,97629.13
2022-10-02T07:25:10.266Z,97624.19
2022-10-02T07:27:20.279Z,97618.03
2022-10-02T07:29:37.662Z,97621.06
2022-10-02T07:31:52.495Z,97617.59
2022-10-02T07:34:08.009Z,97614.91
2022-10-02T07:36:14.384Z,97609.34
2022-10-02T07:38:46.162Z,97627.00
2022-10-02T07:41:00.196Z,97632.16
2022-10-02T07:43:17.403Z,97629.47
2022-10-02T07:45:28.713Z,97627.44
2022-10-02T07:47:56.253Z,97619.19
2022-10-02T07:50:09.383Z,97606.44
2022-10-02T07:52:25.643Z,97617.72
2022-10-02T07:54:59.977Z,97631.91
2022-10-02T07:57:11.878Z,97616.47
2022-10-02T07:59:18.909Z,97620.78
2022-10-02T08:01:25.964Z,97615.88
2022-10-02T08:03:33.345Z,97616.47
2022-10-02T08:05:41.585Z,97616.47
2022-10-02T08:07:50.781Z,97631.88
2022-10-02T08:09:55.537Z,97638.03
2022-10-02T08:12:04.340Z,97639.44
2022-10-02T08:14:12.053Z,97643.75
2022-10-02T08:16:20.806Z,97638.19
2022-10-02T08:18:34.558Z,97648.88
2022-10-02T08:20:43.025Z,97643.53
2022-10-02T08:22:50.895Z,97632.84
2022-10-02T08:24:58.279Z,97630.75
2022-10-02T08:27:08.350Z,97635.06
2022-10-02T08:29:17.962Z,97639.59
2022-10-02T08:31:24.011Z,97643.31
2022-10-02T08:33:26.926Z,97649.47
2022-10-02T08:35:41.212Z,97637.16
2022-10-02T08:38:04.984Z,97628.69
2022-10-02T08:40:53.593Z,97627.44
2022-10-02T08:43:39.013Z,97616.53
2022-10-02T08:46:23.530Z,97612.81
2022-10-02T08:48:49.583Z,97610.94
2022-10-02T08:51:30.218Z,97615.03
2022-10-02T08:54:17.151Z,97617.50
2022-10-02T08:56:39.630Z,97618.94
2022-10-02T08:59:05.388Z,97618.69
2022-10-02T09:01:21.854Z,97625.47
2022-10-02T09:04:12.975Z,97619.06
2022-10-02T09:06:53.915Z,97619.88
2022-10-02T09:09:35.291Z,97613.88
2022-10-02T09:12:21.532Z,97607.28
2022-10-02T09:14:48.313Z,97618.78
2022-10-02T09:17:10.522Z,97616.13
2022-10-02T09:19:40.682Z,97604.38
2022-10-02T09:21:54.731Z,97617.91
2022-10-02T09:24:35.560Z,97620.16
2022-10-02T09:26:58.285Z,97619.94
2022-10-02T09:29:21.922Z,97612.72
2022-10-02T09:31:43.158Z,97619.25
2022-10-02T09:34:15.807Z,97626.00
2022-10-02T09:37:02.110Z,97620.81
2022-10-02T09:39:55.935Z,97625.50
2022-10-02T09:42:36.331Z,97618.88
2022-10-02T09:45:18.221Z,97613.09
2022-10-02T09:48:01.466Z,97623.94
2022-10-02T09:50:36.830Z,97623.28
2022-10-02T09:53:11.557Z,97615.63
2022-10-02T09:55:36.709Z,97610.66
2022-10-02T09:58:14.812Z,97610.00
2022-10-02T10:00:26.476Z,97605.00
2022-10-02T10:02:49.591Z,97609.44
2022-10-02T10:05:10.740Z,97609.59
2022-10-02T10:07:59.111Z,97608.09
2022-10-02T10:10:34.383Z,97600.63
2022-10-02T10:13:12.312Z,97601.09
2022-10-02T10:15:40.483Z,97602.00
2022-10-02T10:18:12.100Z,97604.06
2022-10-02T10:21:07.212Z,97598.88
2022-10-02T10:23:38.189Z,97585.84
2022-10-02T10:26:16.589Z,97590.97
2022-10-02T10:29:03.966Z,97588.75
2022-10-02T10:31:54.237Z,97585.47
2022-10-02T10:34:29.085Z,97588.41
2022-10-02T10:37:08.761Z,97598.88
2022-10-02T10:39:39.521Z,97588.06
2022-10-02T10:42:20.928Z,97581.44
2022-10-02T10:45:00.295Z,97589.03
2022-10-02T10:47:43.632Z,97585.31
2022-10-02T10:50:20.618Z,97575.41
2022-10-02T10:52:42.676Z,97578.44
2022-10-02T10:54:55.817Z,97576.13
2022-10-02T10:57:04.306Z,97567.72
2022-10-02T10:59:43.235Z,97582.31
2022-10-02T11:02:06.564Z,97585.13
2022-10-02T11:04:39.237Z,97577.66
2022-10-02T11:07:02.706Z,97579.28
2022-10-02T11:09:34.319Z,97577.56
2022-10-02T11:11:44.855Z,97583.28
2022-10-02T11:14:05.579Z,97578.50
2022-10-02T11:16:44.804Z,97589.84
2022-10-02T11:19:10.912Z,97582.84
2022-10-02T11:21:38.381Z,97589.03
2022-10-02T11:24:08.862Z,97595.19
2022-10-02T11:26:32.318Z,97591.47
2022-10-02T11:28:56.193Z,97583.28
2022-10-02T11:31:16.657Z,97584.47
2022-10-02T11:33:34.967Z,97573.75
2022-10-02T11:36:16.392Z,97578.66
2022-10-02T11:38:43.466Z,97585.66
2022-10-02T11:40:59.923Z,97572.81
2022-10-02T11:43:27.535Z,97572.34
2022-10-02T11:46:00.191Z,97576.47
2022-10-02T11:48:41.282Z,97560.63
2022-10-02T11:51:01.934Z,97562.00
2022-10-02T11:53:32.057Z,97557.22
2022-10-02T11:55:50.414Z,97558.50
2022-10-02T11:58:06.020Z,97552.69
2022-10-02T12:00:34.369Z,97552.44
2022-10-02T12:02:42.909Z,97543.34
2022-10-02T12:05:04.430Z,97540.19
2022-10-02T12:07:21.023Z,97534.03
2022-10-02T12:09:36.912Z,97534.63
2022-10-02T12:11:48.351Z,97528.22
2022-10-02T12:14:04.488Z,97520.50
2022-10-02T12:16:18.143Z,97522.50
2022-10-02T12:18:42.816Z,97525.00
2022-10-02T12:21:16.184Z,97504.34
2022-10-02T12:23:47.221Z,97507.84
2022-10-02T12:26:16.384Z,97508.44
2022-10-02T12:28:27.433Z,97506.91
2022-10-02T12:30:40.699Z,97501.28
2022-10-02T12:33:27.213Z,97509.09
2022-10-02T12:35:51.793Z,97503.41
2022-10-02T12:38:06.267Z,97492.31
2022-10-02T12:40:21.273Z,97488.56
2022-10-02T12:43:00.281Z,97498.59
2022-10-02T12:45:28.188Z,97501.28
2022-10-02T12:47:50.643Z,97496.72
2022-10-02T12:50:11.208Z,97498.97
2022-10-02T12:52:40.676Z,97492.06
2022-10-02T12:55:13.461Z,97490.19
2022-10-02T12:57:53.082Z,97493.69
2022-10-02T13:00:04.490Z,97488.09
2022-10-02T13:03:00.485Z,97489.13
2022-10-02T13:05:47.972Z,97491.34
2022-10-02T13:08:19.350Z,97487.03
2022-10-02T13:10:24.688Z,97489.72
2022-10-02T13:12:54.109Z,97491.94
2022-10-02T13:15:17.651Z,97490.66
2022-10-02T13:17:32.432Z,97497.66
2022-10-02T13:19:47.890Z,97494.72
2022-10-02T13:21:59.470Z,97499.84
2022-10-02T13:24:17.348Z,97497.03
2022-10-02T13:26:34.156Z,97493.88
2022-10-02T13:28:50.200Z,97490.72
2022-10-02T13:31:04.288Z,97488.63
2022-10-02T13:33:20.344Z,97497.25
2022-10-02T13:36:04.665Z,97498.88
2022-10-02T13:38:23.238Z,97493.53
2022-10-02T13:40:31.031Z,97501.34
2022-10-02T13:42:48.011Z,97496.53
2022-10-02T13:45:00.366Z,97497.91
2022-10-02T13:47:28.434Z,97507.38
2022-10-02T13:49:46.763Z,97504.81
2022-10-02T13:51:57.575Z,97505.16
2022-10-02T13:54:23.620Z,97500.84
2022-10-02T13:56:43.881Z,97493.59
2022-10-02T13:59:14.788Z,97498.16
2022-10-02T14:01:30.046Z,97490.34
2022-10-02T14:03:50.008Z,97491.72
2022-10-02T14:06:01.221Z,97491.72
2022-10-02T14:08:44.296Z,97486.34
2022-10-02T14:11:01.555Z,97488.22
2022-10-02T14:13:21.048Z,97489.53
2022-10-02T14:15:38.200Z,97489.53
2022-10-02T14:17:53.779Z,97494.91
2022-10-02T14:20:15.739Z,97487.91
2022-10-02T14:22:34.839Z,97491.16
2022-10-02T14:25:04.376Z,97480.41
2022-10-02T14:27:19.192Z,97480.16
2022-10-02T14:29:37.125Z,97479.09
2022-10-02T14:32:05.865Z,97481.56
2022-10-02T14:34:26.177Z,97478.41
2022-10-02T14:36:38.552Z,97481.91
2022-10-02T14:39:01.117Z,97486.22
2022-10-02T14:41:18.889Z,97468.22
2022-10-02T14:43:42.317Z,97469.53
2022-10-02T14:46:08.691Z,97469.53
2022-10-02T14:48:27.049Z,97464.97
2022-10-02T14:50:44.838Z,97471.41
2022-10-02T14:53:04.571Z,97471.66
2022-10-02T14:55:28.156Z,97468.72
2022-10-02T14:57:53.046Z,97470.81
2022-10-02T15:00:24.632Z,97477.59
2022-10-02T15:02:50.290Z,97483.22
2022-10-02T15:05:07.003Z,97479.47
2022-10-02T15:07:13.182Z,97476.78
2022-10-02T15:09:21.268Z,97480.03
2022-10-02T15:11:47.354Z,97478.72
2022-10-02T15:13:56.815Z,97490.88
2022-10-02T15:16:26.848Z,97482.00
2022-10-02T15:18:40.186Z,97484.34
2022-10-02T15:20:59.434Z,97483.78
2022-10-02T15:23:04.331Z,97487.78
2022-10-02T15:25:18.299Z,97484.34
2022-10-02T15:27:24.917Z,97488.19
2022-10-02T15:29:40.962Z,97492.50
2022-10-02T15:32:02.376Z,97485.03
2022-10-02T15:34:19.814Z,97490.16
2022-10-02T15:36:50.423Z,97478.59
2022-10-02T15:39:19.686Z,97475.44
2022-10-02T15:41:48.129Z,97481.63
2022-10-02T15:44:03.193Z,97477.88
2022-10-02T15:46:15.956Z,97487.31
2022-10-02T15:49:06.124Z,97481.94
2022-10-02T15:51:21.568Z,97479.25
2022-10-02T15:53:37.425Z,97479.00
2022-10-02T15:55:44.638Z,97481.47
2022-10-02T15:58:08.521Z,97487.88
2022-10-02T16:00:15.116Z,97487.31
2022-10-02T16:02:33.043Z,97483.00
2022-10-02T16:04:47.068Z,97486.75
2022-10-02T16:07:31.959Z,97496.44
2022-10-02T16:09:50.545Z,97494.00
2022-10-02T16:12:11.366Z,97491.53
2022-10-02T16:14:19.753Z,97504.66
2022-10-02T16:16:56.145Z,97501.59
2022-10-02T16:19:08.338Z,97501.03
2022-10-02T16:21:27.200Z,97504.22
2022-10-02T16:23:57.598Z,97507.94
2022-10-02T16:26:15.504Z,97508.41
2022-10-02T16:28:34.303Z,97506.22
2022-10-02T16:30:59.199Z,97500.25
2022-10-02T16:33:20.986Z,97503.19
2022-10-02T16:36:03.561Z,97506.94
2022-10-02T16:38:17.936Z,97507.16
2022-10-02T16:40:28.909Z,97514.38
2022-10-02T16:42:45.255Z,97511.09
2022-10-02T16:45:02.810Z,97513.22
2022-10-02T16:47:14.894Z,97516.38
2022-10-02T16:49:25.780Z,97516.63
2022-10-02T16:51:45.010Z,97508.00
2022-10-02T16:53:54.496Z,97518.72
2022-10-02T16:56:07.072Z,97518.72
2022-10-02T16:58:19.328Z,97524.56
2022-10-02T17:00:26.720Z,97540.09
2022-10-02T17:02:43.406Z,97541.38
2022-10-02T17:04:59.266Z,97542.69
2022-10-02T17:07:07.047Z,97536.50
2022-10-02T17:09:18.581Z,97545.59
2022-10-02T17:11:26.255Z,97545.84
2022-10-02T17:13:35.738Z,97551.22
2022-10-02T17:15:46.238Z,97546.28
2022-10-02T17:18:12.373Z,97546.78
2022-10-02T17:20:20.450Z,97552.97
2022-10-02T17:22:34.234Z,97552.38
2022-10-02T17:24:43.594Z,97562.31
2022-10-02T17:26:52.619Z,97565.47
2022-10-02T17:29:02.819Z,97567.53
2022-10-02T17:31:36.629Z,97572.91
2022-10-02T17:33:48.036Z,97562.66
2022-10-02T17:35:58.004Z,97580.63
2022-10-02T17:38:25.583Z,97577.38
2022-10-02T17:40:37.051Z,97578.19
2022-10-02T17:42:48.836Z,97572.22
2022-10-02T17:45:00.133Z,97574.34
2022-10-02T17:47:36.004Z,97579.91
2022-10-02T17:49:51.727Z,97587.97
2022-10-02T17:52:23.835Z,97585.50
2022-10-02T17:55:00.130Z,97576.88
2022-10-02T17:57:17.416Z,97581.44
2022-10-02T18:00:04.493Z,97588.66
2022-10-02T18:02:22.132Z,97587.28
2022-10-02T18:04:33.224Z,97587.28
2022-10-02T18:06:47.154Z,97598.25
2022-10-02T18:09:23.020Z,97595.81
2022-10-02T18:11:42.496Z,97592.28
2022-10-02T18:13:59.882Z,97605.69
2022-10-02T18:16:22.177Z,97604.06
2022-10-02T18:18:33.601Z,97599.50
2022-10-02T18:20:44.483Z,97599.50
2022-10-02T18:23:08.511Z,97593.31
2022-10-02T18:25:24.241Z,97594.97
2022-10-02T18:28:04.286Z,97586.56
2022-10-02T18:30:15.962Z,97591.69
2022-10-02T18:32:44.654Z,97592.75
2022-10-02T18:35:14.889Z,97595.66
2022-10-02T18:37:39.266Z,97594.03
2022-10-02T18:40:01.357Z,97596.94
2022-10-02T18:42:29.833Z,97601.75
2022-10-02T18:44:49.844Z,97596.38
2022-10-02T18:47:04.265Z,97597.44
2022-10-02T18:49:29.301Z,97590.88
2022-10-02T18:51:53.572Z,97597.06
2022-10-02T18:54:10.614Z,97592.72
2022-10-02T18:56:40.122Z,97601.00
2022-10-02T18:58:58.439Z,97604.75
2022-10-02T19:01:10.739Z,97607.44
2022-10-02T19:03:25.421Z,97610.13
2022-10-02T19:05:32.948Z,97611.16
2022-10-02T19:07:40.907Z,97605.81
2022-10-02T19:09:44.276Z,97601.50
2022-10-02T19:11:56.190Z,97604.41
2022-10-02T19:14:03.192Z,97601.94
2022-10-02T19:16:19.293Z,97608.13
2022-10-02T19:18:24.543Z,97608.13
2022-10-02T19:20:37.231Z,97604.59
2022-10-02T19:22:41.898Z,97614.91
2022-10-02T19:24:47.143Z,97612.22
2022-10-02T19:26:57.037Z,97606.84
2022-10-02T19:29:03.860Z,97608.47
2022-10-02T19:31:11.262Z,97613.63
2022-10-02T19:33:22.756Z,97593.31
2022-10-02T19:35:29.396Z,97618.75
2022-10-02T19:37:33.232Z,97613.38
2022-10-02T19:39:39.948Z,97606.16
2022-10-02T19:41:44.759Z,97601.59
2022-10-02T19:43:56.426Z,97605.34
2022-10-02T19:46:04.025Z,97606.16
2022-10-02T19:48:10.231Z,97605.34
2022-10-02T19:50:21.896Z,97602.66
2022-10-02T19:52:35.871Z,97606.16
2022-10-02T19:54:40.765Z,97597.28
2022-10-02T19:56:45.514Z,97602.66
2022-10-02T19:58:51.087Z,97593.78
2022-10-02T20:00:56.238Z,97597.28
2022-10-02T20:03:01.630Z,97595.66
2022-10-02T20:05:08.168Z,97600.19
2022-10-02T20:07:17.611Z,97594.59
2022-10-02T20:09:25.904Z,97601.00
2022-10-02T20:11:36.248Z,97598.34
2022-10-02T20:13:45.513Z,97592.16
2022-10-02T20:16:12.298Z,97595.06
2022-10-02T20:18:16.197Z,97597.75
2022-10-02T20:20:20.609Z,97594.50
2022-10-02T20:22:31.684Z,97591.81
2022-10-02T20:24:46.235Z,97586.44
2022-10-02T20:26:52.788Z,97588.31
2022-10-02T20:29:00.202Z,97587.69
2022-10-02T20:31:07.987Z,97591.66
2022-10-02T20:33:19.131Z,97588.38
2022-10-02T20:35:29.185Z,97584.06
2022-10-02T20:37:34.798Z,97581.63
2022-10-02T20:39:42.893Z,97588.59
2022-10-02T20:41:55.684Z,97584.53
2022-10-02T20:44:06.127Z,97585.59
2022-10-02T20:46:30.509Z,97592.19
2022-10-02T20:49:08.077Z,97593.25
2022-10-02T20:51:16.854Z,97602.34
2022-10-02T20:53:57.510Z,97606.06
2022-10-02T20:56:07.658Z,97603.63
